Sunday, July 22, 2018, 10:16 AM EDT
Back to Local

KACK, Nantucket Memorial Airport

Location: Nantucket, MA, United States Lat: 41.25
Local Time: 10:16 AM EDT (14:16 GMT) Lon: -70.067
Time Zone: US/Eastern Elev: 49 ft

Show me the last for .
Show Decoded

2018-07-22 09:53 METAR KACK 221353Z 14018KT 8SM OVC019 22/21 A3008 RMK AO2 SLP186 T02170206 =
2018-07-22 08:53 METAR KACK 221253Z 13015KT 7SM FEW003 SCT019 BKN120 22/21 A3007 RMK AO2 SLP184
                 T02170206 =
2018-07-22 08:17 METAR KACK 221217Z 13015KT 7SM FEW003 SCT019 BKN120 22/21 A3007 RMK AO2
                 T02170211 =
2018-07-22 07:53 METAR KACK 221153Z 13017KT 8SM BKN003 OVC016 21/21 A3007 RMK AO2 SLP182
                 T02110211 10211 20172 53006 =
2018-07-22 06:53 METAR KACK 221053Z 12016KT 6SM BR OVC003 20/20 A3006 RMK AO2 SLP179 T02000200 =
2018-07-22 05:53 METAR KACK 220953Z 10013KT 2 1/2SM R24/6000VP6000FT BR OVC002 19/19 A3005 RMK
                 AO2 SLP175 T01890189 =
2018-07-22 05:40 METAR KACK 220940Z AUTO 11012KT 2SM BR OVC002 18/18 A3005 RMK AO2 T01830183 =
2018-07-22 05:32 METAR KACK 220932Z AUTO 10011KT 3SM BR OVC002 18/18 A3005 RMK AO2 T01780178 =
2018-07-22 05:13 METAR KACK 220913Z AUTO 10010KT 2 1/2SM BR OVC002 17/17 A3005 RMK AO2 T01720172
                 =
2018-07-22 04:53 METAR KACK 220853Z AUTO 10012KT 1 1/4SM R24/4500VP6000FT BR OVC002 17/17 A3005
                 RMK AO2 SLP176 T01720172 58003 =
2018-07-22 03:53 METAR KACK 220753Z AUTO 10015KT 1/2SM R24/2800V3000FT FG VV002 17/17 A3006 RMK
                 AO2 SLP180 T01720172 =
2018-07-22 03:39 METAR KACK 220739Z AUTO 10014KT 3/4SM R24/3000V5000FT BR VV002 17/17 A3006 RMK
                 AO2 T01720172 =
2018-07-22 03:05 METAR KACK 220705Z AUTO 10012KT 1SM R24/4500V6000FT BR VV003 17/17 A3006 RMK AO2
                 T01720172 =
2018-07-22 02:53 METAR KACK 220653Z AUTO 11011G18KT 3/4SM R24/3500V5000FT BR VV002 17/17 A3006
                 RMK AO2 SLP179 T01720172 =
2018-07-22 02:46 METAR KACK 220646Z AUTO 09013KT 3/4SM R24/3000V4500FT BR VV002 17/17 A3006 RMK
                 AO2 T01720172 =
2018-07-22 02:22 METAR KACK 220622Z AUTO 09012KT 1SM R24/5000VP6000FT BR VV003 17/17 A3006 RMK
                 AO2 T01720172 =
2018-07-22 01:53 METAR KACK 220553Z AUTO 09014G20KT 3/4SM R24/2800V4500FT BR VV002 17/17 A3006
                 RMK AO2 SLP179 T01720172 10172 20161 56014 =
2018-07-22 00:53 METAR KACK 220453Z AUTO 09012G19KT 3/4SM R24/3500V4500FT BR VV002 17/17 A3008
                 RMK AO2 SLP184 T01720172 401940111 =
2018-07-22 00:36 METAR KACK 220436Z AUTO 08011KT 3/4SM R24/3500V5000FT BR VV003 17/17 A3008 RMK
                 AO2 T01720172 =
2018-07-22 00:10 METAR KACK 220410Z AUTO 08010KT 1SM R24/4500VP6000FT BR VV002 17/17 A3008 RMK
                 AO2 T01670167 =
2018-07-21 23:53 METAR KACK 220353Z AUTO 08011KT 3/4SM R24/3500V4500FT BR VV002 17/17 A3008 RMK
                 AO2 SLP187 T01670167 =
2018-07-21 23:11 METAR KACK 220311Z AUTO 08010KT 1/2SM R24/2200V4500FT FG VV002 16/16 A3010 RMK
                 AO2 T01610161 =
2018-07-21 23:04 METAR KACK 220304Z AUTO 07011KT 1/4SM R24/2000V2800FT FG VV002 16/16 A3010 RMK
                 AO2 T01610161 =
2018-07-21 22:53 METAR KACK 220253Z AUTO 08012KT 1/4SM R24/1800V2200FT FG VV002 16/16 A3010 RMK
                 AO2 SLP193 T01610161 58005 =
2018-07-21 22:48 METAR KACK 220248Z AUTO 08010KT 1/4SM R24/1800V2200FT FG VV002 16/16 A3010 RMK
                 AO2 =
2018-07-21 21:53 METAR KACK 220153Z AUTO 08010KT 1/2SM R24/2600V3500FT FG VV002 16/16 A3012 RMK
                 AO2 SLP197 T01610161 =
2018-07-21 20:53 METAR KACK 220053Z 08010KT 1/2SM R24/2400V4000FT FG VV002 17/17 A3012 RMK AO2
                 SLP199 T01670167 =
2018-07-21 20:36 METAR KACK 220036Z 08009KT 1/2SM R24/2600VP6000FT FG VV002 17/17 A3012 RMK AO2
                 T01670167 =
2018-07-21 20:19 METAR KACK 220019Z 08010KT 1 1/2SM R24/5000VP6000FT BR OVC002 16/16 A3011 RMK
                 AO2 T01610161 =
2018-07-21 20:08 METAR KACK 220008Z 09013KT 2 1/2SM BR OVC003 16/16 A3012 RMK AO2 VIS 1 1/2V5
                 T01610161 =
2018-07-21 19:53 METAR KACK 212353Z 09010KT 5SM BR OVC003 17/16 A3012 RMK AO2 SLP198 T01670161
                 10189 20167 56004 =
2018-07-21 18:53 METAR KACK 212253Z 09012KT 10SM OVC004 17/16 A3012 RMK AO2 SLP199 T01670161 =
2018-07-21 17:53 METAR KACK 212153Z 09012KT 10SM OVC005 17/16 A3012 RMK AO2 SLP198 T01720161 =
2018-07-21 16:53 METAR KACK 212053Z 09012KT 10SM BKN007 18/15 A3013 RMK AO2 SLP202 T01780150
                 56006 =
2018-07-21 15:53 METAR KACK 211953Z 10009KT 10SM OVC007 17/15 A3013 RMK AO2 SLP202 T01720150 =
2018-07-21 14:53 METAR KACK 211853Z 09010KT 10SM OVC009 18/15 A3014 RMK AO2 SLP206 T01830150 =
2018-07-21 13:53 METAR KACK 211753Z 08013KT 10SM BKN005 18/16 A3015 RMK AO2 SLP208 T01830156
                 10194 20144 58010 =
2018-07-21 13:13 METAR KACK 211713Z 10013G17KT 10SM BKN004 OVC009 19/16 A3016 RMK AO2 T01940156 =
2018-07-21 12:53 METAR KACK 211653Z 12009KT 10SM BKN007 19/16 A3017 RMK AO2 SLP217 T01890161 =
2018-07-21 11:53 METAR KACK 211553Z 11011KT 10SM BKN007 18/16 A3017 RMK AO2 SLP218 T01780161 =
2018-07-21 10:53 METAR KACK 211453Z 10011KT 6SM BR BKN005 16/15 A3018 RMK AO2 SLP218 T01610150
                 51005 $ =

Support USWX by starting your Amazon purchase here.